Time;durP1;ratioP1;P1;durP2;ratioP2;P2;SDS_P1;SDS_P2;PMS_P1;PMS_P2;Temp;Humidity;BMP_temperature;BMP_pressure;BME280_temperature;BME280_humidity;BME280_pressure;Samples;Min_cycle;Max_cycle;Signal;HPM_P1;HPM_P2
2023/09/12 00:00:32;;;;;;;6.68;2.42;;;;;;;14.49;100.00;100757.69;5071031;28;20123;-47
2023/09/12 00:02:59;;;;;;;4.38;1.58;;;;;;;14.44;100.00;100761.59;5072389;28;20139;-44
2023/09/12 00:05:26;;;;;;;1.80;1.13;;;;;;;14.40;100.00;100762.72;5073093;28;20524;-44
2023/09/12 00:07:55;;;;;;;1.60;1.05;;;;;;;14.36;100.00;100770.19;5071305;28;20095;-44
2023/09/12 00:10:22;;;;;;;5.95;1.20;;;;;;;14.32;100.00;100760.97;5071788;28;20052;-44
2023/09/12 00:12:49;;;;;;;4.55;1.52;;;;;;;14.26;100.00;100770.75;5071053;28;20044;-44
2023/09/12 00:15:16;;;;;;;3.03;1.10;;;;;;;14.18;100.00;100763.44;5066654;28;20094;-44
2023/09/12 00:17:42;;;;;;;5.18;1.30;;;;;;;14.15;100.00;100778.09;5054682;28;20041;-44
2023/09/12 00:20:11;;;;;;;6.85;1.52;;;;;;;14.09;100.00;100768.44;5071315;28;20048;-45
2023/09/12 00:22:37;;;;;;;3.03;1.38;;;;;;;14.04;100.00;100775.94;5071350;28;20068;-46
2023/09/12 00:25:04;;;;;;;5.72;1.80;;;;;;;14.03;100.00;100785.44;5070467;28;20078;-44
2023/09/12 00:27:31;;;;;;;3.08;1.42;;;;;;;13.99;100.00;100784.56;5072308;28;20080;-44
2023/09/12 00:29:58;;;;;;;5.45;2.72;;;;;;;14.01;100.00;100784.19;5067544;28;20122;-44
2023/09/12 00:32:25;;;;;;;9.32;1.20;;;;;;;13.97;100.00;100792.50;5065823;28;20087;-44
2023/09/12 00:34:53;;;;;;;3.88;1.20;;;;;;;13.91;100.00;100788.38;5072968;28;20056;-44
2023/09/12 00:37:20;;;;;;;3.15;0.88;;;;;;;13.89;100.00;100799.09;5067846;28;20076;-44
2023/09/12 00:39:47;;;;;;;4.10;1.20;;;;;;;13.84;100.00;100791.03;5070927;28;20040;-44
2023/09/12 00:42:14;;;;;;;3.67;1.20;;;;;;;13.82;100.00;100801.69;5052371;28;20048;-46
2023/09/12 00:44:41;;;;;;;3.13;0.68;;;;;;;13.79;100.00;100788.50;5069927;28;20486;-44
2023/09/12 00:47:10;;;;;;;5.22;1.05;;;;;;;13.80;100.00;100798.47;5069479;28;20049;-45
2023/09/12 00:49:39;;;;;;;3.17;0.90;;;;;;;13.79;100.00;100794.06;5063421;28;20052;-44
2023/09/12 00:52:08;;;;;;;3.47;0.60;;;;;;;13.72;100.00;100799.50;5060937;28;20438;-44
2023/09/12 00:54:35;;;;;;;3.78;1.10;;;;;;;13.71;100.00;100800.69;5071484;28;20044;-44
2023/09/12 00:57:02;;;;;;;8.05;0.88;;;;;;;13.69;100.00;100797.44;5071350;28;20040;-51
2023/09/12 00:59:30;;;;;;;2.40;1.02;;;;;;;13.65;100.00;100795.75;5063427;28;20040;-45
2023/09/12 01:01:57;;;;;;;2.08;1.02;;;;;;;13.58;100.00;100790.84;5052086;28;20052;-46
2023/09/12 01:04:24;;;;;;;3.03;0.93;;;;;;;13.57;100.00;100805.94;5068787;28;20076;-44
2023/09/12 01:07:03;;;;;;;4.60;0.90;;;;;;;13.55;100.00;100801.91;5068610;28;20041;-44
2023/09/12 01:09:31;;;;;;;4.97;0.80;;;;;;;13.53;100.00;100805.03;5071694;28;20131;-44
2023/09/12 01:11:59;;;;;;;5.55;0.90;;;;;;;13.52;100.00;100813.75;5068234;28;20041;-47
2023/09/12 01:14:26;;;;;;;2.30;0.70;;;;;;;13.53;100.00;100815.38;5071668;28;20052;-44
2023/09/12 01:16:53;;;;;;;3.28;1.10;;;;;;;13.55;100.00;100813.84;5069107;28;20049;-44
2023/09/12 01:19:19;;;;;;;4.78;1.17;;;;;;;13.55;100.00;100813.84;5070586;28;20064;-44
2023/09/12 01:21:50;;;;;;;7.05;1.10;;;;;;;13.57;100.00;100811.50;5069536;28;20088;-44
2023/09/12 01:24:48;;;;;;;2.63;0.80;;;;;;;13.53;100.00;100810.59;5069235;28;20049;-44
2023/09/12 01:27:27;;;;;;;5.32;0.75;;;;;;;13.52;100.00;100805.41;5060680;28;20048;-44
2023/09/12 01:30:00;;;;;;;4.68;1.10;;;;;;;13.53;100.00;100807.03;5066773;28;20052;-44
2023/09/12 01:32:28;;;;;;;3.75;1.20;;;;;;;13.52;100.00;100809.00;5050033;28;20060;-44
2023/09/12 01:34:55;;;;;;;1.45;1.00;;;;;;;13.53;100.00;100804.25;5071646;28;20055;-43
2023/09/12 01:37:22;;;;;;;5.72;1.58;;;;;;;13.53;100.00;100813.38;5053053;28;20118;-44
2023/09/12 01:39:49;;;;;;;3.88;0.98;;;;;;;13.51;100.00;100812.94;5052496;28;20076;-43
2023/09/12 01:42:19;;;;;;;4.57;1.23;;;;;;;13.52;100.00;100820.13;5067855;28;20056;-44
2023/09/12 01:44:49;;;;;;;3.55;1.15;;;;;;;13.50;100.00;100816.91;5069155;28;20118;-54
2023/09/12 01:47:20;;;;;;;3.80;0.93;;;;;;;13.46;100.00;100816.00;5065932;28;20110;-44
2023/09/12 01:49:49;;;;;;;3.83;1.33;;;;;;;13.43;100.00;100811.16;5069260;28;20627;-44
2023/09/12 01:52:17;;;;;;;2.30;1.17;;;;;;;13.41;100.00;100817.09;5067490;28;20048;-44
2023/09/12 01:54:44;;;;;;;10.15;2.20;;;;;;;13.41;100.00;100810.72;5068608;28;20116;-44
2023/09/12 01:57:13;;;;;;;4.10;1.30;;;;;;;13.41;100.00;100819.88;5068248;28;20059;-44
2023/09/12 01:59:40;;;;;;;6.65;2.00;;;;;;;13.40;100.00;100817.44;5067331;28;20052;-43
2023/09/12 02:02:07;;;;;;;2.80;0.75;;;;;;;13.37;100.00;100807.06;5062880;28;20049;-50
2023/09/12 02:04:34;;;;;;;2.92;0.98;;;;;;;13.35;100.00;100820.53;5059302;28;20045;-44
2023/09/12 02:07:01;;;;;;;6.57;1.92;;;;;;;13.31;100.00;100822.44;5070617;28;20040;-46
2023/09/12 02:09:27;;;;;;;4.13;0.82;;;;;;;13.28;100.00;100820.38;5071503;28;20097;-43
2023/09/12 02:11:54;;;;;;;1.75;0.90;;;;;;;13.28;100.00;100814.81;5068411;28;20482;-44
2023/09/12 02:14:21;;;;;;;3.85;1.08;;;;;;;13.25;100.00;100826.63;5071508;28;20102;-44
2023/09/12 02:16:48;;;;;;;6.97;1.20;;;;;;;13.24;100.00;100836.13;5070885;28;20044;-44
2023/09/12 02:19:15;;;;;;;2.17;0.95;;;;;;;13.24;100.00;100838.91;5071650;28;20117;-44
2023/09/12 02:21:42;;;;;;;3.00;1.00;;;;;;;13.23;100.00;100840.09;5068603;28;20040;-45
2023/09/12 02:24:09;;;;;;;5.80;0.95;;;;;;;13.21;100.00;100836.88;5071353;28;20405;-44
2023/09/12 02:26:36;;;;;;;5.93;0.98;;;;;;;13.18;100.00;100843.16;5071029;28;20460;-44
2023/09/12 02:29:06;;;;;;;1.27;0.68;;;;;;;13.17;100.00;100847.91;5066778;28;20452;-45
2023/09/12 02:31:32;;;;;;;3.60;0.93;;;;;;;13.16;100.00;100845.47;5055701;28;20083;-42
2023/09/12 02:33:59;;;;;;;2.95;1.10;;;;;;;13.13;100.00;100847.00;5071607;28;20102;-41
2023/09/12 02:36:28;;;;;;;6.03;1.05;;;;;;;13.09;100.00;100837.78;5069809;28;20506;-41
2023/09/12 02:38:54;;;;;;;2.42;1.05;;;;;;;13.06;100.00;100848.78;5071398;28;20091;-42
2023/09/12 02:41:21;;;;;;;2.95;0.63;;;;;;;13.03;100.00;100841.16;5069776;28;20040;-43
2023/09/12 02:43:48;;;;;;;5.75;0.75;;;;;;;13.00;100.00;100842.66;5070986;28;20140;-43
2023/09/12 02:46:14;;;;;;;1.55;0.70;;;;;;;13.01;100.00;100846.25;5064948;28;20110;-41
2023/09/12 02:48:41;;;;;;;3.88;0.85;;;;;;;12.99;100.00;100845.81;5064465;28;20045;-42
2023/09/12 02:51:08;;;;;;;2.80;0.63;;;;;;;12.97;100.00;100842.59;5057934;28;20103;-42
2023/09/12 02:53:35;;;;;;;7.78;0.60;;;;;;;12.97;100.00;100848.97;5066483;28;20462;-43
2023/09/12 02:56:02;;;;;;;4.82;0.77;;;;;;;12.95;100.00;100844.91;5069903;28;20519;-42
2023/09/12 02:58:29;;;;;;;1.42;0.68;;;;;;;12.97;100.00;100848.16;5068131;28;20449;-42
2023/09/12 03:00:56;;;;;;;1.25;0.63;;;;;;;12.98;100.00;100852.53;5100005;22;20041;-43
2023/09/12 03:03:23;;;;;;;5.35;0.95;;;;;;;12.97;100.00;100848.16;5051776;28;20036;-43
2023/09/12 03:06:02;;;;;;;3.50;0.80;;;;;;;13.02;100.00;100853.44;5049151;28;20049;-43
2023/09/12 03:08:29;;;;;;;1.50;0.73;;;;;;;12.98;100.00;100852.53;5036171;28;20491;-43
2023/09/12 03:10:57;;;;;;;3.30;0.70;;;;;;;12.99;100.00;100851.38;5049239;28;20056;-43
2023/09/12 03:13:26;;;;;;;2.25;0.75;;;;;;;12.99;100.00;100856.94;5048105;28;20041;-42
2023/09/12 03:15:53;;;;;;;1.98;0.70;;;;;;;13.02;100.00;100859.81;5049554;28;20044;-43
2023/09/12 03:18:20;;;;;;;4.93;1.02;;;;;;;13.05;100.00;100861.84;5050553;28;20483;-43
2023/09/12 03:20:47;;;;;;;3.00;0.95;;;;;;;13.08;100.00;100863.16;5059908;28;20074;-43
2023/09/12 03:23:13;;;;;;;3.13;0.75;;;;;;;13.08;100.00;100863.16;5052245;28;20095;-43
2023/09/12 03:25:40;;;;;;;3.10;0.80;;;;;;;13.11;100.00;100873.53;5050590;28;20560;-43
2023/09/12 03:28:07;;;;;;;2.30;0.70;;;;;;;13.11;100.00;100863.25;5049311;28;20083;-43
2023/09/12 03:30:36;;;;;;;2.53;0.70;;;;;;;13.12;100.00;100861.28;5048963;28;20335;-43
2023/09/12 03:33:04;;;;;;;1.45;0.68;;;;;;;13.08;100.00;100866.72;5049727;28;20049;-42
2023/09/12 03:35:34;;;;;;;1.58;0.60;;;;;;;13.07;100.00;100872.66;5050665;28;20049;-41
2023/09/12 03:38:01;;;;;;;3.00;0.88;;;;;;;13.10;100.00;100878.31;5050847;28;20445;-42
2023/09/12 03:40:32;;;;;;;3.67;0.75;;;;;;;13.09;100.00;100867.53;5050467;28;20041;-42
2023/09/12 03:42:59;;;;;;;5.43;1.77;;;;;;;13.11;100.00;100876.31;5049650;28;20499;-43
2023/09/12 03:45:26;;;;;;;4.38;0.88;;;;;;;13.12;100.00;100875.97;5050515;28;20041;-42
2023/09/12 03:47:53;;;;;;;2.92;0.80;;;;;;;13.13;100.00;100874.81;5050294;28;20053;-43
2023/09/12 03:50:20;;;;;;;2.30;0.80;;;;;;;13.15;100.00;100874.47;5049612;28;20053;-43
2023/09/12 03:52:46;;;;;;;7.88;1.55;;;;;;;13.14;100.00;100881.97;5046469;28;20045;-43
2023/09/12 03:55:13;;;;;;;3.13;1.27;;;;;;;13.16;100.00;100876.88;5041169;28;20047;-51
2023/09/12 03:57:40;;;;;;;2.20;0.80;;;;;;;13.22;100.00;100880.19;5046591;28;20073;-43
2023/09/12 04:00:08;;;;;;;2.53;0.88;;;;;;;13.26;100.00;100889.44;5046833;28;20114;-44
2023/09/12 04:02:35;;;;;;;3.83;0.75;;;;;;;13.27;100.00;100874.34;5043686;28;20486;-43
2023/09/12 04:05:02;;;;;;;5.70;0.85;;;;;;;13.27;100.00;100877.13;5048677;28;20045;-43
2023/09/12 04:07:29;;;;;;;4.97;1.10;;;;;;;13.28;100.00;100881.53;5051347;28;20492;-43
2023/09/12 04:09:56;;;;;;;6.95;1.10;;;;;;;13.29;100.00;100878.38;5041617;28;20056;-43
2023/09/12 04:12:22;;;;;;;3.05;1.00;;;;;;;13.30;100.00;100879.19;5052053;28;20424;-43
2023/09/12 04:14:54;;;;;;;4.25;0.85;;;;;;;13.29;100.00;100881.16;5053035;28;20048;-44
2023/09/12 04:17:21;;;;;;;10.63;2.80;;;;;;;13.29;100.00;100878.38;5054014;28;20041;-44
2023/09/12 04:19:48;;;;;;;2.47;1.00;;;;;;;13.29;100.00;100877.59;5052027;28;20047;-45
2023/09/12 04:22:15;;;;;;;4.75;1.00;;;;;;;13.30;100.00;100877.22;5052048;28;20103;-44
2023/09/12 04:24:42;;;;;;;3.40;0.90;;;;;;;13.32;100.00;100879.63;5053982;28;20041;-44
2023/09/12 04:27:09;;;;;;;2.92;1.00;;;;;;;13.32;100.00;100887.97;5053770;28;20402;-44
2023/09/12 04:29:35;;;;;;;4.68;1.23;;;;;;;13.32;100.00;100879.63;5049233;28;20052;-43
2023/09/12 04:32:05;;;;;;;6.60;1.60;;;;;;;13.32;100.00;100880.44;5050782;28;20406;-44
2023/09/12 04:34:33;;;;;;;6.07;1.55;;;;;;;13.29;100.00;100877.59;5053071;28;20470;-44
2023/09/12 04:37:02;;;;;;;1.88;1.20;;;;;;;13.27;100.00;100879.91;5052514;28;20041;-43
2023/09/12 04:39:29;;;;;;;2.33;1.67;;;;;;;13.28;100.00;100879.56;5052300;28;20071;-44
2023/09/12 04:41:56;;;;;;;3.95;1.60;;;;;;;13.28;100.00;100884.31;5050152;28;20482;-44
2023/09/12 04:44:23;;;;;;;2.53;1.90;;;;;;;13.26;100.00;100884.66;5052676;28;20072;-44
2023/09/12 04:46:50;;;;;;;3.67;1.30;;;;;;;13.26;100.00;100883.88;5051821;28;20073;-44
2023/09/12 04:49:17;;;;;;;4.82;2.00;;;;;;;13.27;100.00;100896.59;5053118;28;20055;-44
2023/09/12 04:51:44;;;;;;;6.38;1.80;;;;;;;13.26;100.00;100890.22;5041970;28;20045;-45
2023/09/12 04:54:11;;;;;;;5.05;1.55;;;;;;;13.26;100.00;100895.78;5049603;28;20132;-44
2023/09/12 04:56:38;;;;;;;7.70;3.65;;;;;;;13.26;100.00;100895.00;5052560;28;20044;-44
2023/09/12 04:59:06;;;;;;;4.05;1.10;;;;;;;13.24;100.00;100900.91;5052359;28;20099;-43
2023/09/12 05:01:33;;;;;;;5.97;1.20;;;;;;;13.22;100.00;100905.19;5053217;28;20079;-43
2023/09/12 05:04:00;;;;;;;6.28;1.10;;;;;;;13.20;100.00;100908.34;5051021;28;20079;-44
2023/09/12 05:06:27;;;;;;;2.05;0.90;;;;;;;13.16;100.00;100913.00;5046774;28;20045;-43
2023/09/12 05:08:54;;;;;;;5.50;1.23;;;;;;;13.14;100.00;100903.41;5040348;28;20072;-43
2023/09/12 05:11:24;;;;;;;7.15;1.00;;;;;;;13.11;100.00;100913.28;5052730;28;20080;-44
2023/09/12 05:13:51;;;;;;;5.50;1.73;;;;;;;13.06;100.00;100912.69;5051875;28;20136;-43
2023/09/12 05:16:19;;;;;;;4.13;1.00;;;;;;;13.04;100.00;100915.03;5050983;28;20140;-44
2023/09/12 05:18:49;;;;;;;4.68;0.68;;;;;;;13.02;100.00;100909.03;5039123;28;20627;-44
2023/09/12 05:21:16;;;;;;;3.03;0.90;;;;;;;13.01;100.00;100922.13;5050918;28;20437;-44
2023/09/12 05:23:43;;;;;;;9.70;1.30;;;;;;;12.98;100.00;100924.78;5050327;28;20048;-45
2023/09/12 05:26:09;;;;;;;6.75;1.33;;;;;;;12.91;100.00;100916.28;5046932;28;20060;-44
2023/09/12 05:28:37;;;;;;;4.53;1.25;;;;;;;12.92;100.00;100926.25;5052425;28;20060;-43
2023/09/12 05:31:03;;;;;;;4.50;0.90;;;;;;;12.86;100.00;100922.09;5052366;28;20495;-44
2023/09/12 05:33:30;;;;;;;6.10;1.65;;;;;;;12.88;100.00;100917.00;5045070;28;20052;-44
2023/09/12 05:35:59;;;;;;;9.05;1.52;;;;;;;12.84;100.00;100928.00;5048978;28;20059;-44
2023/09/12 05:38:26;;;;;;;10.13;1.27;;;;;;;12.80;100.00;100933.47;5050366;28;20049;-45
2023/09/12 05:40:53;;;;;;;4.78;1.20;;;;;;;12.78;100.00;100933.03;5051423;28;20077;-45
2023/09/12 05:43:19;;;;;;;4.03;0.98;;;;;;;12.77;100.00;100934.19;5044899;28;20053;-44
2023/09/12 05:45:47;;;;;;;4.55;0.98;;;;;;;12.79;100.00;100937.41;5045509;28;20088;-44
2023/09/12 05:48:14;;;;;;;6.60;1.58;;;;;;;12.78;100.00;100940.56;5050902;28;20045;-43
2023/09/12 05:50:40;;;;;;;6.20;1.30;;;;;;;12.73;100.00;100938.81;5049377;28;20056;-44
2023/09/12 05:53:08;;;;;;;5.88;1.27;;;;;;;12.72;100.00;100942.78;5052725;28;20394;-44
2023/09/12 05:55:35;;;;;;;4.95;1.10;;;;;;;12.72;100.00;100936.41;5039559;28;20120;-47
2023/09/12 05:58:05;;;;;;;5.00;0.88;;;;;;;12.72;100.00;100948.34;5051839;28;20552;-44
2023/09/12 06:00:33;;;;;;;6.75;1.15;;;;;;;12.75;100.00;100942.06;5051222;28;20049;-46
2023/09/12 06:03:00;;;;;;;4.13;1.15;;;;;;;12.73;100.00;100951.94;5051939;28;20080;-44
2023/09/12 06:05:27;;;;;;;2.78;0.80;;;;;;;12.68;100.00;100952.19;5050705;28;20056;-44
2023/09/12 06:07:54;;;;;;;4.78;0.82;;;;;;;12.64;100.00;100954.84;5049883;28;20041;-44
2023/09/12 06:10:21;;;;;;;3.85;0.73;;;;;;;12.61;100.00;100952.78;5051755;28;20786;-44
2023/09/12 06:12:49;;;;;;;3.25;1.35;;;;;;;12.59;100.00;100955.09;5051620;28;20045;-45
2023/09/12 06:15:16;;;;;;;8.07;1.98;;;;;;;12.58;100.00;100952.66;5050000;28;20036;-44
2023/09/12 06:17:43;;;;;;;3.17;1.00;;;;;;;12.60;100.00;100955.91;5050230;28;20056;-44
2023/09/12 06:20:10;;;;;;;4.63;0.98;;;;;;;12.61;100.00;100963.88;5048490;28;20699;-44
2023/09/12 06:22:37;;;;;;;7.95;1.13;;;;;;;12.58;100.00;100970.16;5042789;28;20044;-45
2023/09/12 06:25:04;;;;;;;4.00;1.10;;;;;;;12.59;100.00;100971.78;5050053;28;20135;-44
2023/09/12 06:27:31;;;;;;;7.25;1.02;;;;;;;12.59;100.00;100982.06;5055221;28;20044;-44
2023/09/12 06:29:58;;;;;;;4.38;0.90;;;;;;;12.63;100.00;100982.97;5046537;28;20052;-46
2023/09/12 06:32:25;;;;;;;6.00;0.82;;;;;;;12.67;100.00;100984.72;5047002;28;20041;-44
2023/09/12 06:34:52;;;;;;;9.70;0.98;;;;;;;12.69;100.00;100976.00;5049005;28;20406;-45
2023/09/12 06:37:18;;;;;;;5.35;1.17;;;;;;;12.69;100.00;100990.72;5046663;28;20495;-44
2023/09/12 06:39:49;;;;;;;6.90;0.98;;;;;;;12.70;100.00;100985.97;5047912;28;20052;-44
2023/09/12 06:42:16;;;;;;;2.75;1.08;;;;;;;12.66;100.00;100994.19;5050762;28;20056;-45
2023/09/12 06:44:43;;;;;;;10.48;1.10;;;;;;;12.71;100.00;101001.44;5044730;28;20041;-44
2023/09/12 06:47:10;;;;;;;2.95;1.48;;;;;;;12.72;99.97;101003.91;5050278;28;20403;-44
2023/09/12 06:49:37;;;;;;;4.07;1.17;;;;;;;12.73;100.00;101002.72;5043941;28;20045;-45
2023/09/12 06:52:04;;;;;;;5.70;1.20;;;;;;;12.73;99.75;101004.72;5045379;28;20060;-44
2023/09/12 06:54:33;;;;;;;7.47;1.55;;;;;;;12.72;99.62;100997.53;5051359;28;20048;-44
2023/09/12 06:57:00;;;;;;;4.85;1.00;;;;;;;12.69;99.65;100999.03;5045710;28;20053;-44
2023/09/12 06:59:27;;;;;;;9.35;2.50;;;;;;;12.71;99.75;100998.69;5046281;28;20045;-48
2023/09/12 07:01:54;;;;;;;5.88;1.92;;;;;;;12.75;99.86;101005.97;5058692;28;20048;-45
2023/09/12 07:04:21;;;;;;;3.58;1.02;;;;;;;12.81;99.80;101012.88;5044722;28;20149;-48
2023/09/12 07:06:49;;;;;;;5.55;1.35;;;;;;;12.81;99.33;101017.66;5048955;28;20088;-44
2023/09/12 07:09:16;;;;;;;8.60;1.60;;;;;;;12.80;99.17;101011.28;5050001;28;20051;-44
2023/09/12 07:11:43;;;;;;;3.40;1.10;;;;;;;12.84;99.14;101020.50;5042779;28;20080;-45
2023/09/12 07:14:10;;;;;;;3.42;0.98;;;;;;;12.83;98.81;101016.13;5045419;28;20148;-48
2023/09/12 07:16:37;;;;;;;4.35;1.00;;;;;;;12.82;98.47;101022.84;5046238;28;20045;-46
2023/09/12 07:19:04;;;;;;;4.57;0.93;;;;;;;12.78;98.29;101035.84;5047699;28;20053;-46
2023/09/12 07:21:32;;;;;;;5.72;0.80;;;;;;;12.84;98.60;101033.59;5042314;28;20513;-46
2023/09/12 07:23:59;;;;;;;3.95;1.00;;;;;;;12.83;98.18;101035.59;5044536;28;20053;-49
2023/09/12 07:26:25;;;;;;;8.48;1.13;;;;;;;12.88;98.21;101034.50;5048261;28;20514;-46
2023/09/12 07:28:54;;;;;;;8.00;1.20;;;;;;;12.94;98.13;101040.63;5040446;28;20049;-47
2023/09/12 07:31:21;;;;;;;7.88;1.60;;;;;;;12.92;97.45;101040.97;5050558;28;20095;-47
2023/09/12 07:33:48;;;;;;;4.25;1.05;;;;;;;12.95;97.43;101031.09;5048394;28;20471;-47
2023/09/12 07:36:15;;;;;;;2.13;0.88;;;;;;;12.93;97.16;101037.03;5050653;28;20394;-46
2023/09/12 07:38:42;;;;;;;6.18;1.20;;;;;;;12.93;97.18;101042.59;5050517;28;20168;-46
2023/09/12 07:41:09;;;;;;;2.95;0.82;;;;;;;12.92;97.07;101054.06;5051604;28;20059;-46
2023/09/12 07:43:36;;;;;;;4.30;0.82;;;;;;;12.84;96.86;101053.84;5054770;28;20070;-46
2023/09/12 07:46:03;;;;;;;3.05;0.80;;;;;;;12.76;96.57;101060.34;5053393;28;20550;-46
2023/09/12 07:48:30;;;;;;;6.85;1.20;;;;;;;12.72;96.76;101062.25;5053609;28;20053;-52
2023/09/12 07:50:57;;;;;;;2.47;0.80;;;;;;;12.69;96.67;101065.72;5054057;28;20080;-47
2023/09/12 07:53:24;;;;;;;6.65;1.42;;;;;;;12.64;96.67;101063.19;5054953;28;20102;-46
2023/09/12 07:55:50;;;;;;;2.90;0.90;;;;;;;12.64;96.72;101060.41;5053579;28;20552;-47
2023/09/12 07:58:23;;;;;;;5.63;0.70;;;;;;;12.61;96.34;101058.31;5053161;28;20566;-49
2023/09/12 08:00:50;;;;;;;5.50;0.88;;;;;;;12.63;96.68;101072.66;5053898;28;20045;-46
2023/09/12 08:03:17;;;;;;;2.72;0.90;;;;;;;12.61;96.26;101066.66;5053420;28;20076;-48
2023/09/12 08:05:54;;;;;;;6.70;0.80;;;;;;;12.65;96.39;101081.47;5043058;28;20061;-48
2023/09/12 08:08:21;;;;;;;4.18;0.80;;;;;;;12.67;96.08;101076.38;5053616;28;20095;-46
2023/09/12 08:10:48;;;;;;;7.75;1.08;;;;;;;12.69;95.78;101076.00;5053975;28;20052;-47
2023/09/12 08:13:15;;;;;;;4.72;0.77;;;;;;;12.73;96.09;101074.16;5053776;28;20044;-47
2023/09/12 08:15:41;;;;;;;8.05;1.50;;;;;;;12.76;95.74;101070.69;5052989;28;20032;-46
2023/09/12 08:18:08;;;;;;;6.30;2.03;;;;;;;12.79;95.58;101081.88;5052763;28;20602;-48
2023/09/12 08:20:35;;;;;;;4.57;1.02;;;;;;;12.85;95.87;101071.34;5054234;28;20043;-47
2023/09/12 08:23:02;;;;;;;10.77;1.08;;;;;;;12.91;95.77;101071.91;5053582;28;20158;-46
2023/09/12 08:25:29;;;;;;;5.82;1.15;;;;;;;12.96;95.94;101079.97;5052713;28;20056;-46
2023/09/12 08:27:56;;;;;;;6.32;1.17;;;;;;;13.01;96.07;101083.31;5057116;28;20187;-46
2023/09/12 08:30:25;;;;;;;1.90;0.68;;;;;;;13.04;96.50;101088.19;5053668;28;20514;-47
2023/09/12 08:32:52;;;;;;;5.22;0.90;;;;;;;13.12;97.03;101084.47;5054013;28;20372;-46
2023/09/12 08:35:19;;;;;;;6.18;3.13;;;;;;;13.22;97.82;101083.16;5052427;28;20064;-46
2023/09/12 08:37:46;;;;;;;3.13;0.93;;;;;;;13.30;98.81;101091.34;5052047;28;20360;-46
2023/09/12 08:40:14;;;;;;;5.18;0.90;;;;;;;13.43;100.00;101084.53;5050817;28;20060;-47
2023/09/12 08:42:43;;;;;;;2.88;1.27;;;;;;;13.59;100.00;101086.53;5052166;28;20044;-47
2023/09/12 08:45:15;;;;;;;5.53;1.15;;;;;;;13.78;100.00;101084.69;5043597;28;20052;-53
2023/09/12 08:47:51;;;;;;;6.75;1.40;;;;;;;13.98;100.00;101093.91;5050800;28;20401;-46
2023/09/12 08:50:21;;;;;;;7.88;1.27;;;;;;;14.26;100.00;101100.19;5053406;28;20053;-48
2023/09/12 08:52:47;;;;;;;6.68;1.30;;;;;;;14.60;100.00;101107.78;5039191;28;20503;-47
2023/09/12 08:55:35;;;;;;;2.65;0.82;;;;;;;15.14;100.00;101099.38;5051428;28;20537;-47
2023/09/12 08:58:04;;;;;;;5.53;1.27;;;;;;;15.94;100.00;101106.91;5051904;28;20049;-45
2023/09/12 09:00:31;;;;;;;4.03;0.82;;;;;;;16.97;100.00;101118.53;5053505;28;20555;-44
2023/09/12 09:02:59;;;;;;;4.30;0.80;;;;;;;18.09;100.00;101120.19;5053035;28;20155;-44
2023/09/12 09:05:27;;;;;;;5.20;1.08;;;;;;;19.19;95.63;101127.38;5052590;28;20448;-45
2023/09/12 09:07:55;;;;;;;5.40;0.80;;;;;;;20.16;89.08;101135.66;5051844;28;20124;-44
2023/09/12 09:10:23;;;;;;;4.20;1.08;;;;;;;21.00;83.71;101134.78;5052708;28;20064;-45
2023/09/12 09:13:09;;;;;;;8.80;1.02;;;;;;;21.79;79.31;101139.69;5052706;28;20091;-52
2023/09/12 09:15:41;;;;;;;2.40;1.60;;;;;;;22.32;74.09;101142.94;5052907;28;20049;-44
2023/09/12 09:18:10;;;;;;;6.20;1.40;;;;;;;22.73;70.26;101139.41;5051722;28;20546;-45
2023/09/12 09:20:40;;;;;;;2.47;1.02;;;;;;;23.08;67.72;101139.03;5053166;28;20060;-44
2023/09/12 09:23:09;;;;;;;4.95;1.13;;;;;;;23.53;65.31;101153.84;5052598;28;20045;-45
2023/09/12 09:25:40;;;;;;;5.15;0.88;;;;;;;23.73;63.41;101159.59;5052636;28;20131;-48
2023/09/12 09:28:20;;;;;;;4.88;1.10;;;;;;;24.00;63.61;101155.56;5051375;28;20048;-44
2023/09/12 09:30:50;;;;;;;3.30;0.68;;;;;;;24.27;57.97;101160.44;5052529;28;20640;-49
2023/09/12 09:33:21;;;;;;;4.57;0.77;;;;;;;24.49;57.02;101156.06;5052399;28;20037;-45
2023/09/12 09:35:49;;;;;;;4.75;0.88;;;;;;;24.74;54.94;101151.53;5053099;28;20053;-47
2023/09/12 09:38:20;;;;;;;3.00;1.00;;;;;;;24.85;55.21;101159.06;5051432;28;20041;-44
2023/09/12 09:40:48;;;;;;;2.70;1.00;;;;;;;24.99;53.40;101155.97;5052268;28;20049;-44
2023/09/12 09:43:20;;;;;;;7.40;0.90;;;;;;;25.18;52.97;101160.84;5051300;28;20084;-41
2023/09/12 09:45:47;;;;;;;4.10;0.65;;;;;;;25.26;50.36;101159.47;5052227;28;20099;-44
2023/09/12 09:48:18;;;;;;;3.65;1.00;;;;;;;25.46;50.78;101154.63;5051255;28;20084;-45
2023/09/12 09:50:45;;;;;;;2.17;1.10;;;;;;;25.62;49.16;101157.53;5052943;28;20064;-44
2023/09/12 09:53:12;;;;;;;4.82;0.77;;;;;;;25.72;48.40;101156.47;5052312;28;20044;-43
2023/09/12 09:55:39;;;;;;;3.05;0.80;;;;;;;25.83;47.04;101170.44;5051875;28;20045;-43
2023/09/12 09:58:06;;;;;;;1.52;0.60;;;;;;;25.80;46.10;101163.59;5049892;28;20045;-43
2023/09/12 10:00:39;;;;;;;3.28;0.50;;;;;;;25.77;47.51;101161.63;5052388;28;20041;-43
2023/09/12 10:03:07;;;;;;;1.38;0.73;;;;;;;25.97;45.62;101162.38;5052459;28;20045;-45
2023/09/12 10:05:37;;;;;;;5.07;0.88;;;;;;;26.10;44.87;101170.22;5050812;28;20041;-46
2023/09/12 10:08:08;;;;;;;3.63;0.90;;;;;;;26.12;44.70;101168.53;5048029;28;20045;-43
2023/09/12 10:10:38;;;;;;;5.88;0.88;;;;;;;25.86;43.52;101164.69;5038868;28;20497;-46
2023/09/12 10:13:06;;;;;;;5.88;0.80;;;;;;;25.34;43.97;101170.22;5052000;28;20068;-44
2023/09/12 10:15:35;;;;;;;4.22;1.10;;;;;;;25.34;43.38;101149.56;5051768;28;20045;-44
2023/09/12 10:18:08;;;;;;;1.65;0.60;;;;;;;25.46;43.86;101154.63;5050283;28;20081;-46
2023/09/12 10:20:45;;;;;;;3.83;0.90;;;;;;;25.54;43.96;101161.75;5048935;28;20036;-47
2023/09/12 10:23:19;;;;;;;2.55;0.63;;;;;;;25.72;43.27;101159.31;5051279;28;20079;-45
2023/09/12 10:25:49;;;;;;;4.63;0.90;;;;;;;25.17;43.45;101164.91;5052317;28;20148;-48
2023/09/12 10:28:17;;;;;;;3.58;1.08;;;;;;;24.38;43.93;101164.72;5050619;28;20049;-44
2023/09/12 10:30:44;;;;;;;7.40;1.00;;;;;;;24.16;44.99;101157.78;5051235;28;20041;-44
2023/09/12 10:33:14;;;;;;;5.00;1.08;;;;;;;24.50;44.38;101171.78;5049243;28;20045;-44
2023/09/12 10:35:42;;;;;;;3.55;0.90;;;;;;;24.88;43.98;101175.19;5050050;28;20026;-48
2023/09/12 10:38:13;;;;;;;1.95;0.65;;;;;;;25.15;43.03;101173.06;5049826;28;20049;-46
2023/09/12 10:40:42;;;;;;;8.25;1.02;;;;;;;24.52;43.90;101181.44;5051182;28;20228;-46
2023/09/12 10:43:14;;;;;;;4.30;0.95;;;;;;;;;;5051518;28;20055;-49
2023/09/12 10:45:41;;;;;;;5.00;0.80;;;;;;;23.36;45.64;101172.56;5050889;28;20117;-44
2023/09/12 10:48:10;;;;;;;6.40;0.93;;;;;;;23.24;46.99;101169.50;5048716;28;20102;-47
2023/09/12 10:50:39;;;;;;;4.47;0.75;;;;;;;23.40;46.42;101179.03;5051147;28;20052;-44
2023/09/12 10:53:12;;;;;;;2.75;0.63;;;;;;;23.24;46.48;101178.78;5050785;28;20131;-45
2023/09/12 10:55:39;;;;;;;2.72;0.60;;;;;;;22.88;46.81;101177.53;5045225;28;20049;-47
2023/09/12 10:58:14;;;;;;;1.75;0.90;;;;;;;22.13;47.17;101180.19;5050637;28;20043;-44
2023/09/12 11:00:40;;;;;;;4.78;1.05;;;;;;;21.37;48.69;101176.53;5050575;28;20048;-43
2023/09/12 11:03:37;;;;;;;4.60;0.88;;;;;;;20.89;49.84;101179.84;5059468;28;20076;-44
2023/09/12 11:06:05;;;;;;;3.60;0.80;;;;;;;20.70;50.33;101180.31;5016860;28;20048;-43
2023/09/12 11:08:37;;;;;;;7.55;0.70;;;;;;;20.50;50.87;101173.47;5050205;28;20044;-44
2023/09/12 11:11:22;;;;;;;1.75;1.55;;;;;;;20.35;50.86;101169.06;5050829;28;20098;-44
2023/09/12 11:14:05;;;;;;;5.25;0.82;;;;;;;20.10;50.01;101174.59;5049167;28;20045;-45
2023/09/12 11:16:33;;;;;;;4.80;0.77;;;;;;;19.89;50.57;101166.94;5050091;28;20136;-44
2023/09/12 11:19:26;;;;;;;27.30;2.47;;;;;;;19.70;50.34;101172.91;5055518;28;20095;-44
2023/09/12 11:21:54;;;;;;;3.05;0.70;;;;;;;19.43;49.72;101172.41;5047778;28;20049;-44
2023/09/12 11:24:21;;;;;;;3.72;0.68;;;;;;;19.30;50.43;101173.16;5047237;28;20053;-45